sensor_id;sensor_type;location;lat;lon;timestamp;temperature;humidity
3356;DHT22;1691;52.486;13.374;2023-11-22T00:01:06;1.80;98.00
3356;DHT22;1691;52.486;13.374;2023-11-22T00:03:34;1.90;98.00
3356;DHT22;1691;52.486;13.374;2023-11-22T00:06:01;1.90;98.00
3356;DHT22;1691;52.486;13.374;2023-11-22T00:08:28;2.00;98.00
3356;DHT22;1691;52.486;13.374;2023-11-22T00:10:58;2.00;98.00
3356;DHT22;1691;52.486;13.374;2023-11-22T00:13:25;2.00;98.00
3356;DHT22;1691;52.486;13.374;2023-11-22T00:15:53;2.00;98.00
3356;DHT22;1691;52.486;13.374;2023-11-22T00:18:20;2.10;98.00
3356;DHT22;1691;52.486;13.374;2023-11-22T00:20:48;2.10;97.90
3356;DHT22;1691;52.486;13.374;2023-11-22T00:23:16;2.10;97.90
3356;DHT22;1691;52.486;13.374;2023-11-22T00:25:43;2.20;98.00
3356;DHT22;1691;52.486;13.374;2023-11-22T00:28:10;2.20;98.00
3356;DHT22;1691;52.486;13.374;2023-11-22T00:30:38;2.20;97.70
3356;DHT22;1691;52.486;13.374;2023-11-22T00:33:06;2.20;97.60
3356;DHT22;1691;52.486;13.374;2023-11-22T00:35:33;2.20;97.60
3356;DHT22;1691;52.486;13.374;2023-11-22T00:38:00;2.20;97.60
3356;DHT22;1691;52.486;13.374;2023-11-22T00:40:27;2.20;97.50
3356;DHT22;1691;52.486;13.374;2023-11-22T00:42:55;2.20;97.60
3356;DHT22;1691;52.486;13.374;2023-11-22T00:45:22;2.20;97.60
3356;DHT22;1691;52.486;13.374;2023-11-22T00:47:49;2.20;97.60
3356;DHT22;1691;52.486;13.374;2023-11-22T00:50:18;2.20;97.60
3356;DHT22;1691;52.486;13.374;2023-11-22T00:52:47;2.10;97.50
3356;DHT22;1691;52.486;13.374;2023-11-22T00:55:14;2.10;97.60
3356;DHT22;1691;52.486;13.374;2023-11-22T00:57:42;2.10;97.50
3356;DHT22;1691;52.486;13.374;2023-11-22T01:00:09;2.10;97.50
3356;DHT22;1691;52.486;13.374;2023-11-22T01:02:37;2.00;97.40
3356;DHT22;1691;52.486;13.374;2023-11-22T01:05:06;2.00;97.50
3356;DHT22;1691;52.486;13.374;2023-11-22T01:07:44;2.00;97.50
3356;DHT22;1691;52.486;13.374;2023-11-22T01:10:11;2.00;97.40
3356;DHT22;1691;52.486;13.374;2023-11-22T01:12:38;2.00;97.40
3356;DHT22;1691;52.486;13.374;2023-11-22T01:15:06;2.00;97.30
3356;DHT22;1691;52.486;13.374;2023-11-22T01:17:33;1.90;97.20
3356;DHT22;1691;52.486;13.374;2023-11-22T01:20:02;1.80;97.10
3356;DHT22;1691;52.486;13.374;2023-11-22T01:22:30;1.70;96.90
3356;DHT22;1691;52.486;13.374;2023-11-22T01:24:57;1.60;96.90
3356;DHT22;1691;52.486;13.374;2023-11-22T01:27:24;1.50;97.10
3356;DHT22;1691;52.486;13.374;2023-11-22T01:29:51;1.40;97.10
3356;DHT22;1691;52.486;13.374;2023-11-22T01:32:20;1.30;97.20
3356;DHT22;1691;52.486;13.374;2023-11-22T01:34:48;1.20;97.20
3356;DHT22;1691;52.486;13.374;2023-11-22T01:37:15;1.20;97.30
3356;DHT22;1691;52.486;13.374;2023-11-22T01:39:42;1.10;97.30
3356;DHT22;1691;52.486;13.374;2023-11-22T01:42:09;1.10;97.50
3356;DHT22;1691;52.486;13.374;2023-11-22T01:44:36;1.00;97.50
3356;DHT22;1691;52.486;13.374;2023-11-22T01:47:04;1.00;97.50
3356;DHT22;1691;52.486;13.374;2023-11-22T01:49:32;1.00;97.50
3356;DHT22;1691;52.486;13.374;2023-11-22T01:52:00;0.90;97.60
3356;DHT22;1691;52.486;13.374;2023-11-22T01:54:28;0.90;97.60
3356;DHT22;1691;52.486;13.374;2023-11-22T01:56:56;0.90;97.60
3356;DHT22;1691;52.486;13.374;2023-11-22T01:59:24;0.80;97.60
3356;DHT22;1691;52.486;13.374;2023-11-22T02:01:53;0.80;97.70
3356;DHT22;1691;52.486;13.374;2023-11-22T02:04:21;0.70;97.70
3356;DHT22;1691;52.486;13.374;2023-11-22T02:06:49;0.70;97.70
3356;DHT22;1691;52.486;13.374;2023-11-22T02:09:17;0.70;97.70
3356;DHT22;1691;52.486;13.374;2023-11-22T02:11:45;0.70;97.60
3356;DHT22;1691;52.486;13.374;2023-11-22T02:14:14;0.70;97.50
3356;DHT22;1691;52.486;13.374;2023-11-22T02:16:42;0.70;97.40
3356;DHT22;1691;52.486;13.374;2023-11-22T02:19:15;0.70;97.20
3356;DHT22;1691;52.486;13.374;2023-11-22T02:21:46;0.60;97.20
3356;DHT22;1691;52.486;13.374;2023-11-22T02:24:13;0.60;97.00
3356;DHT22;1691;52.486;13.374;2023-11-22T02:26:45;0.60;96.60
3356;DHT22;1691;52.486;13.374;2023-11-22T02:29:13;0.60;96.30
3356;DHT22;1691;52.486;13.374;2023-11-22T02:31:43;0.60;96.10
3356;DHT22;1691;52.486;13.374;2023-11-22T02:34:10;0.60;95.80
3356;DHT22;1691;52.486;13.374;2023-11-22T02:36:38;0.50;95.80
3356;DHT22;1691;52.486;13.374;2023-11-22T02:39:05;0.50;95.80
3356;DHT22;1691;52.486;13.374;2023-11-22T02:41:33;0.50;95.60
3356;DHT22;1691;52.486;13.374;2023-11-22T02:44:02;0.40;95.60
3356;DHT22;1691;52.486;13.374;2023-11-22T02:46:29;0.40;95.50
3356;DHT22;1691;52.486;13.374;2023-11-22T02:48:57;0.40;95.50
3356;DHT22;1691;52.486;13.374;2023-11-22T02:51:26;0.40;95.50
3356;DHT22;1691;52.486;13.374;2023-11-22T02:53:53;0.30;95.50
3356;DHT22;1691;52.486;13.374;2023-11-22T02:56:20;0.30;95.40
3356;DHT22;1691;52.486;13.374;2023-11-22T02:58:48;0.30;95.30
3356;DHT22;1691;52.486;13.374;2023-11-22T03:01:15;0.30;95.30
3356;DHT22;1691;52.486;13.374;2023-11-22T03:03:42;0.30;95.30
3356;DHT22;1691;52.486;13.374;2023-11-22T03:06:09;0.20;95.10
3356;DHT22;1691;52.486;13.374;2023-11-22T03:08:36;0.20;95.00
3356;DHT22;1691;52.486;13.374;2023-11-22T03:11:04;0.20;95.00
3356;DHT22;1691;52.486;13.374;2023-11-22T03:13:31;0.20;94.90
3356;DHT22;1691;52.486;13.374;2023-11-22T03:15:58;0.20;94.80
3356;DHT22;1691;52.486;13.374;2023-11-22T03:18:25;0.20;94.70
3356;DHT22;1691;52.486;13.374;2023-11-22T03:20:52;0.20;94.70
3356;DHT22;1691;52.486;13.374;2023-11-22T03:23:21;0.20;94.70
3356;DHT22;1691;52.486;13.374;2023-11-22T03:25:48;0.20;94.70
3356;DHT22;1691;52.486;13.374;2023-11-22T03:28:15;0.10;94.70
3356;DHT22;1691;52.486;13.374;2023-11-22T03:30:42;0.10;94.60
3356;DHT22;1691;52.486;13.374;2023-11-22T03:33:09;0.10;94.70
3356;DHT22;1691;52.486;13.374;2023-11-22T03:35:37;0.10;94.80
3356;DHT22;1691;52.486;13.374;2023-11-22T03:38:04;0.10;94.80
3356;DHT22;1691;52.486;13.374;2023-11-22T03:40:31;0.10;94.80
3356;DHT22;1691;52.486;13.374;2023-11-22T03:42:58;0.10;94.80
3356;DHT22;1691;52.486;13.374;2023-11-22T03:45:25;0.10;95.00
3356;DHT22;1691;52.486;13.374;2023-11-22T03:47:52;0.10;95.10
3356;DHT22;1691;52.486;13.374;2023-11-22T03:50:19;0.10;95.20
3356;DHT22;1691;52.486;13.374;2023-11-22T03:52:46;0.10;95.30
3356;DHT22;1691;52.486;13.374;2023-11-22T03:55:13;0.00;95.40
3356;DHT22;1691;52.486;13.374;2023-11-22T03:57:40;0.00;95.40
3356;DHT22;1691;52.486;13.374;2023-11-22T04:00:08;0.00;95.50
3356;DHT22;1691;52.486;13.374;2023-11-22T04:02:37;0.00;95.60
3356;DHT22;1691;52.486;13.374;2023-11-22T04:05:05;0.00;95.70
3356;DHT22;1691;52.486;13.374;2023-11-22T04:07:33;-0.10;95.80
3356;DHT22;1691;52.486;13.374;2023-11-22T04:10:00;-0.10;95.90
3356;DHT22;1691;52.486;13.374;2023-11-22T04:12:27;-0.10;96.00
3356;DHT22;1691;52.486;13.374;2023-11-22T04:14:54;-0.10;96.00
3356;DHT22;1691;52.486;13.374;2023-11-22T04:17:21;-0.10;96.10
3356;DHT22;1691;52.486;13.374;2023-11-22T04:19:49;-0.20;96.10
3356;DHT22;1691;52.486;13.374;2023-11-22T04:22:16;-0.20;96.30
3356;DHT22;1691;52.486;13.374;2023-11-22T04:24:43;-0.20;96.40
3356;DHT22;1691;52.486;13.374;2023-11-22T04:27:11;-0.20;96.50
3356;DHT22;1691;52.486;13.374;2023-11-22T04:29:38;-0.20;96.50
3356;DHT22;1691;52.486;13.374;2023-11-22T04:32:05;-0.20;96.50
3356;DHT22;1691;52.486;13.374;2023-11-22T04:34:32;-0.20;96.60
3356;DHT22;1691;52.486;13.374;2023-11-22T04:36:59;-0.20;96.80
3356;DHT22;1691;52.486;13.374;2023-11-22T04:39:26;-0.20;96.80
3356;DHT22;1691;52.486;13.374;2023-11-22T04:41:54;-0.20;96.80
3356;DHT22;1691;52.486;13.374;2023-11-22T04:44:20;-0.20;96.80
3356;DHT22;1691;52.486;13.374;2023-11-22T04:46:47;-0.30;96.90
3356;DHT22;1691;52.486;13.374;2023-11-22T04:49:14;-0.30;97.00
3356;DHT22;1691;52.486;13.374;2023-11-22T04:51:41;-0.30;97.00
3356;DHT22;1691;52.486;13.374;2023-11-22T04:54:09;-0.30;97.00
3356;DHT22;1691;52.486;13.374;2023-11-22T04:56:36;-0.30;97.00
3356;DHT22;1691;52.486;13.374;2023-11-22T04:59:03;-0.40;97.10
3356;DHT22;1691;52.486;13.374;2023-11-22T05:01:34;-0.40;97.10
3356;DHT22;1691;52.486;13.374;2023-11-22T05:04:02;-0.40;97.10
3356;DHT22;1691;52.486;13.374;2023-11-22T05:06:29;-0.40;97.20
3356;DHT22;1691;52.486;13.374;2023-11-22T05:08:56;-0.40;97.30
3356;DHT22;1691;52.486;13.374;2023-11-22T05:11:23;-0.40;97.30
3356;DHT22;1691;52.486;13.374;2023-11-22T05:13:50;-0.40;97.30
3356;DHT22;1691;52.486;13.374;2023-11-22T05:16:17;-0.40;97.30
3356;DHT22;1691;52.486;13.374;2023-11-22T05:18:45;-0.40;97.30
3356;DHT22;1691;52.486;13.374;2023-11-22T05:21:12;-0.50;97.30
3356;DHT22;1691;52.486;13.374;2023-11-22T05:23:39;-0.50;97.40
3356;DHT22;1691;52.486;13.374;2023-11-22T05:26:10;-0.50;97.30
3356;DHT22;1691;52.486;13.374;2023-11-22T05:28:37;-0.50;97.40
3356;DHT22;1691;52.486;13.374;2023-11-22T05:31:04;-0.50;97.40
3356;DHT22;1691;52.486;13.374;2023-11-22T05:33:32;-0.60;97.50
3356;DHT22;1691;52.486;13.374;2023-11-22T05:35:59;-0.60;97.50
3356;DHT22;1691;52.486;13.374;2023-11-22T05:38:26;-0.60;97.50
3356;DHT22;1691;52.486;13.374;2023-11-22T05:40:53;-0.60;97.60
3356;DHT22;1691;52.486;13.374;2023-11-22T05:43:21;-0.60;97.60
3356;DHT22;1691;52.486;13.374;2023-11-22T05:45:53;-0.60;97.60
3356;DHT22;1691;52.486;13.374;2023-11-22T05:48:21;-0.60;97.60
3356;DHT22;1691;52.486;13.374;2023-11-22T05:50:48;-0.60;97.60
3356;DHT22;1691;52.486;13.374;2023-11-22T05:53:15;-0.60;97.60
3356;DHT22;1691;52.486;13.374;2023-11-22T05:55:48;-0.60;97.60
3356;DHT22;1691;52.486;13.374;2023-11-22T05:58:16;-0.60;97.60
3356;DHT22;1691;52.486;13.374;2023-11-22T06:00:44;-0.60;97.70
3356;DHT22;1691;52.486;13.374;2023-11-22T06:03:12;-0.60;97.70
3356;DHT22;1691;52.486;13.374;2023-11-22T06:05:40;-0.60;97.60
3356;DHT22;1691;52.486;13.374;2023-11-22T06:08:07;-0.60;97.60
3356;DHT22;1691;52.486;13.374;2023-11-22T06:10:36;-0.60;97.60
3356;DHT22;1691;52.486;13.374;2023-11-22T06:13:04;-0.60;97.60
3356;DHT22;1691;52.486;13.374;2023-11-22T06:15:31;-0.50;97.70
3356;DHT22;1691;52.486;13.374;2023-11-22T06:17:59;-0.50;97.60
3356;DHT22;1691;52.486;13.374;2023-11-22T06:20:26;-0.50;97.70
3356;DHT22;1691;52.486;13.374;2023-11-22T06:22:54;-0.50;97.70
3356;DHT22;1691;52.486;13.374;2023-11-22T06:25:21;-0.50;97.60
3356;DHT22;1691;52.486;13.374;2023-11-22T06:27:48;-0.50;97.60
3356;DHT22;1691;52.486;13.374;2023-11-22T06:30:15;-0.50;97.60
3356;DHT22;1691;52.486;13.374;2023-11-22T06:32:42;-0.50;97.60
3356;DHT22;1691;52.486;13.374;2023-11-22T06:35:10;-0.50;97.50
3356;DHT22;1691;52.486;13.374;2023-11-22T06:37:41;-0.60;97.60
3356;DHT22;1691;52.486;13.374;2023-11-22T06:40:09;-0.60;97.60
3356;DHT22;1691;52.486;13.374;2023-11-22T06:42:40;-0.60;97.60
3356;DHT22;1691;52.486;13.374;2023-11-22T06:45:08;-0.60;97.60
3356;DHT22;1691;52.486;13.374;2023-11-22T06:47:42;-0.60;97.70
3356;DHT22;1691;52.486;13.374;2023-11-22T06:50:11;-0.60;97.80
3356;DHT22;1691;52.486;13.374;2023-11-22T06:52:39;-0.60;97.80
3356;DHT22;1691;52.486;13.374;2023-11-22T06:55:08;-0.60;97.80
3356;DHT22;1691;52.486;13.374;2023-11-22T06:57:35;-0.60;97.70
3356;DHT22;1691;52.486;13.374;2023-11-22T07:00:04;-0.60;97.80
3356;DHT22;1691;52.486;13.374;2023-11-22T07:02:35;-0.50;97.70
3356;DHT22;1691;52.486;13.374;2023-11-22T07:05:03;-0.50;97.70
3356;DHT22;1691;52.486;13.374;2023-11-22T07:07:38;-0.50;97.70
3356;DHT22;1691;52.486;13.374;2023-11-22T07:10:05;-0.40;97.70
3356;DHT22;1691;52.486;13.374;2023-11-22T07:12:33;-0.40;97.70
3356;DHT22;1691;52.486;13.374;2023-11-22T07:15:01;-0.40;97.80
3356;DHT22;1691;52.486;13.374;2023-11-22T07:17:29;-0.30;97.80
3356;DHT22;1691;52.486;13.374;2023-11-22T07:19:57;-0.20;97.70
3356;DHT22;1691;52.486;13.374;2023-11-22T07:22:24;-0.20;97.60
3356;DHT22;1691;52.486;13.374;2023-11-22T07:24:51;0.00;97.70
3356;DHT22;1691;52.486;13.374;2023-11-22T07:27:18;0.50;98.20
3356;DHT22;1691;52.486;13.374;2023-11-22T07:29:45;1.20;98.40
3356;DHT22;1691;52.486;13.374;2023-11-22T07:32:12;1.90;98.20
3356;DHT22;1691;52.486;13.374;2023-11-22T07:34:40;2.60;97.90
3356;DHT22;1691;52.486;13.374;2023-11-22T07:37:08;3.40;97.40
3356;DHT22;1691;52.486;13.374;2023-11-22T07:39:36;4.00;96.70
3356;DHT22;1691;52.486;13.374;2023-11-22T07:42:05;4.60;96.00
3356;DHT22;1691;52.486;13.374;2023-11-22T07:44:35;5.10;95.50
3356;DHT22;1691;52.486;13.374;2023-11-22T07:47:06;5.60;95.10
3356;DHT22;1691;52.486;13.374;2023-11-22T07:49:39;6.00;94.30
3356;DHT22;1691;52.486;13.374;2023-11-22T07:52:06;6.50;94.00
3356;DHT22;1691;52.486;13.374;2023-11-22T07:54:33;7.00;93.40
3356;DHT22;1691;52.486;13.374;2023-11-22T07:57:02;7.40;92.30
3356;DHT22;1691;52.486;13.374;2023-11-22T07:59:29;7.60;91.30
3356;DHT22;1691;52.486;13.374;2023-11-22T08:01:57;7.70;90.50
3356;DHT22;1691;52.486;13.374;2023-11-22T08:04:24;7.80;90.20
3356;DHT22;1691;52.486;13.374;2023-11-22T08:06:52;8.00;89.50
3356;DHT22;1691;52.486;13.374;2023-11-22T08:09:23;8.10;88.60
3356;DHT22;1691;52.486;13.374;2023-11-22T08:11:50;8.40;88.00
3356;DHT22;1691;52.486;13.374;2023-11-22T08:14:19;8.60;86.00
3356;DHT22;1691;52.486;13.374;2023-11-22T08:16:48;8.80;84.30
3356;DHT22;1691;52.486;13.374;2023-11-22T08:19:16;8.80;83.40
3356;DHT22;1691;52.486;13.374;2023-11-22T08:21:43;8.90;82.40
3356;DHT22;1691;52.486;13.374;2023-11-22T08:24:10;9.10;81.70
3356;DHT22;1691;52.486;13.374;2023-11-22T08:26:39;9.30;80.40
3356;DHT22;1691;52.486;13.374;2023-11-22T08:29:07;9.50;78.90
3356;DHT22;1691;52.486;13.374;2023-11-22T08:31:34;9.70;78.20
3356;DHT22;1691;52.486;13.374;2023-11-22T08:34:03;9.80;76.70
3356;DHT22;1691;52.486;13.374;2023-11-22T08:36:34;10.00;75.60
3356;DHT22;1691;52.486;13.374;2023-11-22T08:39:02;9.90;73.90
3356;DHT22;1691;52.486;13.374;2023-11-22T08:41:31;10.00;73.10
3356;DHT22;1691;52.486;13.374;2023-11-22T08:43:59;10.10;72.40
3356;DHT22;1691;52.486;13.374;2023-11-22T08:46:27;10.10;70.30
3356;DHT22;1691;52.486;13.374;2023-11-22T08:48:54;10.00;69.20
3356;DHT22;1691;52.486;13.374;2023-11-22T08:51:23;10.10;69.00
3356;DHT22;1691;52.486;13.374;2023-11-22T08:53:50;10.30;68.70
3356;DHT22;1691;52.486;13.374;2023-11-22T08:56:17;10.60;67.90
3356;DHT22;1691;52.486;13.374;2023-11-22T08:58:45;10.80;67.00
3356;DHT22;1691;52.486;13.374;2023-11-22T09:01:12;10.90;66.10
3356;DHT22;1691;52.486;13.374;2023-11-22T09:03:42;10.90;66.10
3356;DHT22;1691;52.486;13.374;2023-11-22T09:06:10;10.90;66.10
3356;DHT22;1691;52.486;13.374;2023-11-22T09:08:37;10.90;65.50
3356;DHT22;1691;52.486;13.374;2023-11-22T09:11:05;11.00;65.10
3356;DHT22;1691;52.486;13.374;2023-11-22T09:13:34;11.10;65.10
3356;DHT22;1691;52.486;13.374;2023-11-22T09:16:02;11.20;64.20
3356;DHT22;1691;52.486;13.374;2023-11-22T09:18:32;11.10;63.60
3356;DHT22;1691;52.486;13.374;2023-11-22T09:20:59;11.20;63.60
3356;DHT22;1691;52.486;13.374;2023-11-22T09:23:26;11.30;63.40
3356;DHT22;1691;52.486;13.374;2023-11-22T09:25:54;11.50;62.50
3356;DHT22;1691;52.486;13.374;2023-11-22T09:28:21;11.40;61.40
3356;DHT22;1691;52.486;13.374;2023-11-22T09:30:48;11.20;61.60
3356;DHT22;1691;52.486;13.374;2023-11-22T09:33:16;11.20;61.00
3356;DHT22;1691;52.486;13.374;2023-11-22T09:35:45;10.90;60.30
3356;DHT22;1691;52.486;13.374;2023-11-22T09:38:15;10.50;59.20
3356;DHT22;1691;52.486;13.374;2023-11-22T09:40:45;10.10;59.90
3356;DHT22;1691;52.486;13.374;2023-11-22T09:43:14;10.00;60.50
3356;DHT22;1691;52.486;13.374;2023-11-22T09:45:50;10.00;60.80
3356;DHT22;1691;52.486;13.374;2023-11-22T09:48:23;10.10;59.90
3356;DHT22;1691;52.486;13.374;2023-11-22T09:51:03;10.00;59.50
3356;DHT22;1691;52.486;13.374;2023-11-22T09:53:51;9.80;59.00
3356;DHT22;1691;52.486;13.374;2023-11-22T09:56:27;9.50;59.30
3356;DHT22;1691;52.486;13.374;2023-11-22T09:58:55;9.20;58.50
3356;DHT22;1691;52.486;13.374;2023-11-22T10:01:30;8.80;59.00
3356;DHT22;1691;52.486;13.374;2023-11-22T10:04:00;8.50;59.90
3356;DHT22;1691;52.486;13.374;2023-11-22T10:06:28;8.30;60.30
3356;DHT22;1691;52.486;13.374;2023-11-22T10:09:03;8.20;60.80
3356;DHT22;1691;52.486;13.374;2023-11-22T10:11:35;8.20;61.20
3356;DHT22;1691;52.486;13.374;2023-11-22T10:14:05;8.20;61.20
3356;DHT22;1691;52.486;13.374;2023-11-22T10:16:33;8.20;61.20
3356;DHT22;1691;52.486;13.374;2023-11-22T10:19:00;8.10;60.50
3356;DHT22;1691;52.486;13.374;2023-11-22T10:21:28;7.80;60.50
3356;DHT22;1691;52.486;13.374;2023-11-22T10:24:03;7.40;61.00
3356;DHT22;1691;52.486;13.374;2023-11-22T10:26:31;7.30;62.00
3356;DHT22;1691;52.486;13.374;2023-11-22T10:28:59;7.40;62.50
3356;DHT22;1691;52.486;13.374;2023-11-22T10:31:26;7.40;62.30
3356;DHT22;1691;52.486;13.374;2023-11-22T10:33:54;7.40;62.30
3356;DHT22;1691;52.486;13.374;2023-11-22T10:36:25;7.40;62.50
3356;DHT22;1691;52.486;13.374;2023-11-22T10:38:54;7.30;62.50
3356;DHT22;1691;52.486;13.374;2023-11-22T10:41:21;7.00;62.30
3356;DHT22;1691;52.486;13.374;2023-11-22T10:43:52;6.80;62.90
3356;DHT22;1691;52.486;13.374;2023-11-22T10:46:27;6.70;63.30
3356;DHT22;1691;52.486;13.374;2023-11-22T10:48:56;6.60;63.30
3356;DHT22;1691;52.486;13.374;2023-11-22T10:51:30;6.40;63.40
3356;DHT22;1691;52.486;13.374;2023-11-22T10:54:00;6.30;64.40
3356;DHT22;1691;52.486;13.374;2023-11-22T10:56:37;6.40;65.10
3356;DHT22;1691;52.486;13.374;2023-11-22T10:59:10;6.50;64.60
3356;DHT22;1691;52.486;13.374;2023-11-22T11:01:44;6.50;64.60
3356;DHT22;1691;52.486;13.374;2023-11-22T11:04:20;6.30;64.60
3356;DHT22;1691;52.486;13.374;2023-11-22T11:06:53;6.20;64.70
3356;DHT22;1691;52.486;13.374;2023-11-22T11:09:24;6.00;64.90
3356;DHT22;1691;52.486;13.374;2023-11-22T11:11:58;5.90;64.90
3356;DHT22;1691;52.486;13.374;2023-11-22T11:17:26;5.50;65.10
3356;DHT22;1691;52.486;13.374;2023-11-22T11:20:16;5.20;65.90
3356;DHT22;1691;52.486;13.374;2023-11-22T11:23:20;4.90;66.40
3356;DHT22;1691;52.486;13.374;2023-11-22T11:26:37;4.70;67.20
3356;DHT22;1691;52.486;13.374;2023-11-22T11:29:46;4.60;67.70
3356;DHT22;1691;52.486;13.374;2023-11-22T11:33:07;4.40;67.90
3356;DHT22;1691;52.486;13.374;2023-11-22T11:36:06;4.30;68.80
3356;DHT22;1691;52.486;13.374;2023-11-22T11:39:13;4.20;69.00
3356;DHT22;1691;52.486;13.374;2023-11-22T11:42:22;4.20;69.60
3356;DHT22;1691;52.486;13.374;2023-11-22T11:48:53;4.20;69.80
3356;DHT22;1691;52.486;13.374;2023-11-22T11:55:11;4.10;70.10
3356;DHT22;1691;52.486;13.374;2023-11-22T12:04:52;4.00;71.50
3356;DHT22;1691;52.486;13.374;2023-11-22T12:08:03;4.10;71.60
3356;DHT22;1691;52.486;13.374;2023-11-22T12:10:43;4.10;71.80
3356;DHT22;1691;52.486;13.374;2023-11-22T12:14:26;4.30;71.80
3356;DHT22;1691;52.486;13.374;2023-11-22T12:20:21;4.30;71.60
3356;DHT22;1691;52.486;13.374;2023-11-22T12:27:31;4.20;72.40
3356;DHT22;1691;52.486;13.374;2023-11-22T12:30:36;4.20;72.40
3356;DHT22;1691;52.486;13.374;2023-11-22T12:33:15;4.20;72.80
3356;DHT22;1691;52.486;13.374;2023-11-22T12:36:24;4.20;72.60
3356;DHT22;1691;52.486;13.374;2023-11-22T12:42:48;4.10;72.80
3356;DHT22;1691;52.486;13.374;2023-11-22T12:45:36;4.10;72.80
3356;DHT22;1691;52.486;13.374;2023-11-22T12:48:32;4.10;72.90
3356;DHT22;1691;52.486;13.374;2023-11-22T12:51:34;4.10;73.10
3356;DHT22;1691;52.486;13.374;2023-11-22T12:54:33;4.10;73.50
3356;DHT22;1691;52.486;13.374;2023-11-22T12:58:03;4.20;73.70
3356;DHT22;1691;52.486;13.374;2023-11-22T13:01:20;4.20;73.70
3356;DHT22;1691;52.486;13.374;2023-11-22T13:04:22;4.30;73.90
3356;DHT22;1691;52.486;13.374;2023-11-22T13:07:27;4.40;73.90
3356;DHT22;1691;52.486;13.374;2023-11-22T13:10:36;4.50;73.90
3356;DHT22;1691;52.486;13.374;2023-11-22T13:13:47;4.60;73.70
3356;DHT22;1691;52.486;13.374;2023-11-22T13:16:40;4.60;73.90
3356;DHT22;1691;52.486;13.374;2023-11-22T13:19:19;4.60;73.70
3356;DHT22;1691;52.486;13.374;2023-11-22T13:21:53;4.60;73.70
3356;DHT22;1691;52.486;13.374;2023-11-22T13:24:26;4.60;73.50
3356;DHT22;1691;52.486;13.374;2023-11-22T13:27:17;4.60;73.50
3356;DHT22;1691;52.486;13.374;2023-11-22T13:29:49;4.60;73.50
3356;DHT22;1691;52.486;13.374;2023-11-22T13:32:31;4.60;73.10
3356;DHT22;1691;52.486;13.374;2023-11-22T13:35:09;4.50;73.30
3356;DHT22;1691;52.486;13.374;2023-11-22T13:38:10;4.50;73.50
3356;DHT22;1691;52.486;13.374;2023-11-22T13:40:49;4.50;73.70
3356;DHT22;1691;52.486;13.374;2023-11-22T13:47:17;4.50;73.90
3356;DHT22;1691;52.486;13.374;2023-11-22T13:50:21;4.50;74.20
3356;DHT22;1691;52.486;13.374;2023-11-22T13:56:45;4.50;74.60
3356;DHT22;1691;52.486;13.374;2023-11-22T14:03:26;4.40;75.20
3356;DHT22;1691;52.486;13.374;2023-11-22T14:06:47;4.30;75.40
3356;DHT22;1691;52.486;13.374;2023-11-22T14:10:17;4.30;75.40
3356;DHT22;1691;52.486;13.374;2023-11-22T14:13:31;4.20;75.70
3356;DHT22;1691;52.486;13.374;2023-11-22T14:16:20;4.10;75.90
3356;DHT22;1691;52.486;13.374;2023-11-22T14:18:57;4.10;75.90
3356;DHT22;1691;52.486;13.374;2023-11-22T14:21:31;3.90;75.70
3356;DHT22;1691;52.486;13.374;2023-11-22T14:24:03;3.80;76.10
3356;DHT22;1691;52.486;13.374;2023-11-22T14:26:38;3.70;76.10
3356;DHT22;1691;52.486;13.374;2023-11-22T14:29:10;3.60;76.50
3356;DHT22;1691;52.486;13.374;2023-11-22T14:31:42;3.60;76.50
3356;DHT22;1691;52.486;13.374;2023-11-22T14:34:28;3.50;76.70
3356;DHT22;1691;52.486;13.374;2023-11-22T14:37:10;3.50;76.50
3356;DHT22;1691;52.486;13.374;2023-11-22T14:39:47;3.50;76.70
3356;DHT22;1691;52.486;13.374;2023-11-22T14:42:36;3.40;76.70
3356;DHT22;1691;52.486;13.374;2023-11-22T14:45:52;3.30;76.90
3356;DHT22;1691;52.486;13.374;2023-11-22T14:48:38;3.30;77.20
3356;DHT22;1691;52.486;13.374;2023-11-22T14:59:47;3.10;78.00
3356;DHT22;1691;52.486;13.374;2023-11-22T15:03:41;3.00;78.50
3356;DHT22;1691;52.486;13.374;2023-11-22T15:11:16;3.00;79.10
3356;DHT22;1691;52.486;13.374;2023-11-22T15:14:12;3.00;79.30
3356;DHT22;1691;52.486;13.374;2023-11-22T15:16:39;2.90;79.70
3356;DHT22;1691;52.486;13.374;2023-11-22T15:19:06;2.90;79.80
3356;DHT22;1691;52.486;13.374;2023-11-22T15:21:33;2.80;80.00
3356;DHT22;1691;52.486;13.374;2023-11-22T15:24:01;2.80;80.20
3356;DHT22;1691;52.486;13.374;2023-11-22T15:26:30;2.80;80.20
3356;DHT22;1691;52.486;13.374;2023-11-22T15:28:57;2.80;80.40
3356;DHT22;1691;52.486;13.374;2023-11-22T15:31:24;2.80;80.40
3356;DHT22;1691;52.486;13.374;2023-11-22T15:33:51;2.90;80.40
3356;DHT22;1691;52.486;13.374;2023-11-22T15:36:18;2.80;80.40
3356;DHT22;1691;52.486;13.374;2023-11-22T15:38:45;2.80;80.60
3356;DHT22;1691;52.486;13.374;2023-11-22T15:41:12;2.80;80.80
3356;DHT22;1691;52.486;13.374;2023-11-22T15:43:43;2.80;80.80
3356;DHT22;1691;52.486;13.374;2023-11-22T15:46:11;2.80;81.00
3356;DHT22;1691;52.486;13.374;2023-11-22T15:48:39;2.80;81.00
3356;DHT22;1691;52.486;13.374;2023-11-22T15:51:06;2.90;81.10
3356;DHT22;1691;52.486;13.374;2023-11-22T15:53:33;2.90;81.10
3356;DHT22;1691;52.486;13.374;2023-11-22T15:56:00;2.90;81.30
3356;DHT22;1691;52.486;13.374;2023-11-22T15:58:27;2.90;81.50
3356;DHT22;1691;52.486;13.374;2023-11-22T16:00:55;2.90;81.50
3356;DHT22;1691;52.486;13.374;2023-11-22T16:03:24;2.90;81.70
3356;DHT22;1691;52.486;13.374;2023-11-22T16:05:51;2.90;81.70
3356;DHT22;1691;52.486;13.374;2023-11-22T16:08:20;2.90;82.10
3356;DHT22;1691;52.486;13.374;2023-11-22T16:10:48;2.90;82.10
3356;DHT22;1691;52.486;13.374;2023-11-22T16:13:15;2.80;82.30
3356;DHT22;1691;52.486;13.374;2023-11-22T16:15:42;2.90;82.40
3356;DHT22;1691;52.486;13.374;2023-11-22T16:18:09;2.80;82.40
3356;DHT22;1691;52.486;13.374;2023-11-22T16:20:36;2.80;82.60
3356;DHT22;1691;52.486;13.374;2023-11-22T16:23:03;2.80;82.60
3356;DHT22;1691;52.486;13.374;2023-11-22T16:25:31;2.80;82.60
3356;DHT22;1691;52.486;13.374;2023-11-22T16:27:59;2.80;83.00
3356;DHT22;1691;52.486;13.374;2023-11-22T16:30:27;2.80;83.00
3356;DHT22;1691;52.486;13.374;2023-11-22T16:32:55;2.90;83.20
3356;DHT22;1691;52.486;13.374;2023-11-22T16:35:23;2.90;83.20
3356;DHT22;1691;52.486;13.374;2023-11-22T16:37:51;2.90;83.40
3356;DHT22;1691;52.486;13.374;2023-11-22T16:40:18;2.90;83.40
3356;DHT22;1691;52.486;13.374;2023-11-22T16:42:45;2.90;83.40
3356;DHT22;1691;52.486;13.374;2023-11-22T16:45:12;2.80;83.60
3356;DHT22;1691;52.486;13.374;2023-11-22T16:47:39;2.80;83.80
3356;DHT22;1691;52.486;13.374;2023-11-22T16:50:07;2.80;83.90
3356;DHT22;1691;52.486;13.374;2023-11-22T16:52:36;2.80;83.90
3356;DHT22;1691;52.486;13.374;2023-11-22T16:55:03;2.80;83.90
3356;DHT22;1691;52.486;13.374;2023-11-22T16:57:30;2.80;84.10
3356;DHT22;1691;52.486;13.374;2023-11-22T16:59:57;2.80;84.10
3356;DHT22;1691;52.486;13.374;2023-11-22T17:02:25;2.80;84.30
3356;DHT22;1691;52.486;13.374;2023-11-22T17:04:52;2.80;84.30
3356;DHT22;1691;52.486;13.374;2023-11-22T17:07:21;2.80;84.50
3356;DHT22;1691;52.486;13.374;2023-11-22T17:09:48;2.80;84.50
3356;DHT22;1691;52.486;13.374;2023-11-22T17:12:16;2.80;84.70
3356;DHT22;1691;52.486;13.374;2023-11-22T17:14:43;2.70;84.70
3356;DHT22;1691;52.486;13.374;2023-11-22T17:17:10;2.70;84.70
3356;DHT22;1691;52.486;13.374;2023-11-22T17:19:37;2.60;85.10
3356;DHT22;1691;52.486;13.374;2023-11-22T17:22:04;2.60;85.20
3356;DHT22;1691;52.486;13.374;2023-11-22T17:24:31;2.60;85.40